Time;durP1;ratioP1;P1;durP2;ratioP2;P2;SDS_P1;SDS_P2;PMS_P1;PMS_P2;Temp;Humidity;BMP_temperature;BMP_pressure;BME280_temperature;BME280_humidity;BME280_pressure;Samples;Min_cycle;Max_cycle;Signal;HPM_P1;HPM_P2
2021/04/20 05:41:06;;;;;;;36.90;22.73;;;;;;;;;;5713769;23;20014;-71
2021/04/20 05:43:32;;;;;;;30.85;20.67;;;;;;;;;;4892447;29;20059;-65
2021/04/20 05:45:58;;;;;;;34.22;20.88;;;;;;;;;;4900731;29;20036;-64
2021/04/20 05:48:24;;;;;;;34.15;21.40;;;;;;;;;;4895977;29;20031;-66
2021/04/20 05:50:51;;;;;;;33.70;20.88;;;;;;;;;;4914572;29;20384;-65
2021/04/20 05:53:18;;;;;;;32.80;20.98;;;;;;;;;;4914334;29;20034;-66
2021/04/20 05:55:44;;;;;;;31.33;20.52;;;;;;;;;;4904180;29;20032;-64
2021/04/20 05:58:11;;;;;;;35.75;22.17;;;;;;;;;;4913012;29;20115;-65
2021/04/20 06:00:37;;;;;;;32.83;21.30;;;;;;;;;;4914757;29;20380;-63
2021/04/20 06:03:03;;;;;;;33.95;21.42;;;;;;;;;;4914154;29;20032;-64
2021/04/20 06:05:30;;;;;;;33.72;21.98;;;;;;;;;;4914022;29;20028;-64
2021/04/20 06:07:58;;;;;;;32.65;21.30;;;;;;;;;;4914676;29;20040;-65
2021/04/20 06:10:25;;;;;;;33.20;21.98;;;;;;;;;;4908435;29;20892;-65
2021/04/20 06:12:51;;;;;;;31.27;21.42;;;;;;;;;;4913819;29;20066;-64
2021/04/20 06:15:19;;;;;;;31.33;22.00;;;;;;;;;;4914379;29;20048;-65
2021/04/20 06:17:46;;;;;;;30.00;20.95;;;;;;;;;;4914815;29;20071;-65
2021/04/20 06:20:13;;;;;;;32.97;22.25;;;;;;;;;;4914147;29;20028;-64
2021/04/20 06:22:45;;;;;;;30.80;21.92;;;;;;;;;;4914369;29;20031;-67
2021/04/20 06:25:15;;;;;;;33.45;22.75;;;;;;;;;;4909861;29;20661;-67
2021/04/20 06:27:42;;;;;;;31.17;22.67;;;;;;;;;;4884133;29;20037;-66
2021/04/20 06:30:09;;;;;;;30.10;21.05;;;;;;;;;;4885662;29;20040;-65
2021/04/20 06:32:39;;;;;;;31.23;20.58;;;;;;;;;;4890105;29;20036;-65
2021/04/20 06:35:13;;;;;;;33.97;22.83;;;;;;;;;;4900037;29;20163;-65
2021/04/20 06:37:40;;;;;;;27.65;19.95;;;;;;;;;;4906258;29;20080;-67
2021/04/20 06:40:09;;;;;;;27.23;18.10;;;;;;;;;;4887037;29;20137;-68
2021/04/20 06:42:40;;;;;;;32.15;19.38;;;;;;;;;;4884641;29;20087;-65
2021/04/20 06:45:11;;;;;;;30.33;19.88;;;;;;;;;;4875447;29;20040;-66
2021/04/20 06:47:45;;;;;;;23.83;14.88;;;;;;;;;;4866226;29;20104;-66
2021/04/20 06:50:15;;;;;;;25.75;18.50;;;;;;;;;;4865764;29;20061;-68
2021/04/20 06:53:04;;;;;;;34.95;22.05;;;;;;;;;;4866063;29;20112;-68
2021/04/20 06:55:41;;;;;;;39.03;23.33;;;;;;;;;;4809173;29;20095;-67
2021/04/20 06:58:10;;;;;;;28.98;19.30;;;;;;;;;;4809209;29;20111;-67
2021/04/20 07:00:41;;;;;;;56.85;32.17;;;;;;;;;;4808645;29;20035;-68
2021/04/20 07:03:21;;;;;;;29.52;19.58;;;;;;;;;;4809840;29;20026;-67
2021/04/20 07:05:55;;;;;;;26.33;17.52;;;;;;;;;;4809037;29;20186;-69
2021/04/20 07:08:35;;;;;;;25.33;16.65;;;;;;;;;;4812545;29;20084;-68
2021/04/20 07:11:06;;;;;;;24.90;15.88;;;;;;;;;;4807532;29;20534;-68
2021/04/20 07:13:32;;;;;;;28.80;16.40;;;;;;;;;;4819575;29;20063;-70
2021/04/20 07:16:05;;;;;;;24.58;16.50;;;;;;;;;;4827289;29;20026;-69
2021/04/20 07:18:40;;;;;;;25.88;16.48;;;;;;;;;;4814188;29;20492;-69
2021/04/20 07:21:11;;;;;;;22.48;15.45;;;;;;;;;;4809421;29;20122;-69
2021/04/20 07:23:52;;;;;;;18.95;12.55;;;;;;;;;;4813016;29;20563;-68
2021/04/20 07:26:36;;;;;;;25.23;16.42;;;;;;;;;;4811084;29;20042;-70
2021/04/20 07:29:10;;;;;;;23.08;15.93;;;;;;;;;;4811301;29;20037;-72
2021/04/20 07:31:36;;;;;;;21.92;15.65;;;;;;;;;;4817289;29;20089;-70
2021/04/20 07:34:21;;;;;;;21.50;15.57;;;;;;;;;;4870376;29;20053;-70
2021/04/20 07:36:57;;;;;;;22.05;15.45;;;;;;;;;;4876254;29;20422;-69
2021/04/20 07:39:23;;;;;;;23.00;14.88;;;;;;;;;;4868242;29;20037;-69
2021/04/20 07:41:55;;;;;;;19.58;13.80;;;;;;;;;;4868743;29;20560;-67
2021/04/20 07:44:40;;;;;;;21.42;14.60;;;;;;;;;;4870710;29;20041;-68
2021/04/20 07:47:11;;;;;;;21.02;15.27;;;;;;;;;;4874618;29;20029;-68
2021/04/20 07:49:46;;;;;;;22.33;14.90;;;;;;;;;;4868535;29;20029;-66
2021/04/20 07:52:14;;;;;;;24.13;15.63;;;;;;;;;;4870351;29;20039;-67
2021/04/20 07:54:51;;;;;;;20.75;15.07;;;;;;;;;;4853970;29;20044;-67
2021/04/20 07:57:26;;;;;;;26.08;15.70;;;;;;;;;;4868515;29;20077;-66
2021/04/20 08:00:07;;;;;;;22.23;14.75;;;;;;;;;;4880243;29;20044;-67
2021/04/20 08:02:42;;;;;;;23.05;15.15;;;;;;;;;;4893261;29;20035;-67
2021/04/20 08:05:17;;;;;;;20.10;13.85;;;;;;;;;;4890357;29;20033;-66
2021/04/20 08:07:49;;;;;;;22.27;14.90;;;;;;;;;;4884978;29;20396;-67
2021/04/20 08:10:16;;;;;;;22.10;15.52;;;;;;;;;;4896483;29;20036;-66
2021/04/20 08:12:47;;;;;;;21.27;15.23;;;;;;;;;;4875565;29;20029;-66
2021/04/20 08:15:15;;;;;;;20.80;14.70;;;;;;;;;;4874267;29;20037;-66
2021/04/20 08:17:59;;;;;;;21.27;15.20;;;;;;;;;;4869716;29;20264;-66
2021/04/20 08:20:25;;;;;;;32.85;21.17;;;;;;;;;;4871194;29;20481;-67
2021/04/20 08:22:53;;;;;;;25.45;16.98;;;;;;;;;;4874656;29;20026;-66
2021/04/20 08:25:28;;;;;;;25.00;16.35;;;;;;;;;;4869286;29;20101;-67
2021/04/20 08:28:00;;;;;;;23.23;15.55;;;;;;;;;;4867838;29;20053;-68
2021/04/20 08:30:28;;;;;;;22.57;16.30;;;;;;;;;;4871516;29;20178;-68
2021/04/20 08:32:55;;;;;;;24.13;16.23;;;;;;;;;;4870400;29;20261;-68
2021/04/20 08:35:23;;;;;;;22.02;15.57;;;;;;;;;;4870421;29;20083;-68
2021/04/20 08:38:08;;;;;;;24.48;16.08;;;;;;;;;;4859813;29;20460;-67
2021/04/20 08:40:41;;;;;;;23.05;15.32;;;;;;;;;;4859561;29;20375;-67
2021/04/20 08:43:26;;;;;;;24.42;16.65;;;;;;;;;;4855760;29;20061;-66
2021/04/20 08:45:57;;;;;;;26.50;18.48;;;;;;;;;;4865568;29;20464;-64
2021/04/20 08:48:42;;;;;;;27.55;17.80;;;;;;;;;;4859423;29;20036;-66
2021/04/20 08:51:14;;;;;;;27.35;17.52;;;;;;;;;;4865925;29;20093;-70
2021/04/20 08:53:40;;;;;;;26.13;17.70;;;;;;;;;;4877574;29;20041;-66
2021/04/20 08:56:14;;;;;;;27.95;16.83;;;;;;;;;;4878188;29;20271;-66
2021/04/20 08:58:59;;;;;;;26.15;18.35;;;;;;;;;;4877143;29;20025;-66
2021/04/20 09:01:57;;;;;;;26.25;16.98;;;;;;;;;;4877980;29;20107;-71
2021/04/20 09:04:44;;;;;;;30.02;17.65;;;;;;;;;;4819755;29;20058;-64
2021/04/20 09:07:31;;;;;;;27.20;14.07;;;;;;;;;;4819833;29;20055;-66
2021/04/20 09:10:03;;;;;;;19.85;12.55;;;;;;;;;;4816594;29;20042;-66
2021/04/20 09:12:29;;;;;;;23.98;15.10;;;;;;;;;;4819695;29;20046;-65
2021/04/20 09:14:56;;;;;;;23.15;16.35;;;;;;;;;;4819354;29;20070;-67
2021/04/20 09:17:27;;;;;;;25.30;16.30;;;;;;;;;;4824113;29;20474;-64
2021/04/20 09:20:07;;;;;;;22.67;15.88;;;;;;;;;;4819489;29;20083;-65
2021/04/20 09:23:14;;;;;;;24.33;16.88;;;;;;;;;;4820944;29;20065;-70
2021/04/20 09:25:45;;;;;;;24.48;16.58;;;;;;;;;;4798647;29;20094;-70
2021/04/20 09:28:15;;;;;;;25.02;16.63;;;;;;;;;;4800948;29;20104;-76
2021/04/20 09:30:46;;;;;;;25.23;15.80;;;;;;;;;;4800823;29;20042;-75
2021/04/20 09:33:14;;;;;;;23.65;16.58;;;;;;;;;;4800639;29;20055;-69
2021/04/20 09:35:42;;;;;;;22.95;15.30;;;;;;;;;;4801308;29;20030;-73
2021/04/20 09:38:10;;;;;;;21.13;14.38;;;;;;;;;;4801845;29;20109;-67
2021/04/20 09:40:37;;;;;;;22.88;15.35;;;;;;;;;;4813437;29;20536;-68
2021/04/20 09:43:21;;;;;;;20.63;14.95;;;;;;;;;;4817669;29;20058;-69
2021/04/20 09:45:52;;;;;;;19.40;13.95;;;;;;;;;;4816141;29;20047;-68
2021/04/20 09:48:18;;;;;;;19.92;13.88;;;;;;;;;;4818862;29;20038;-73
2021/04/20 09:50:58;;;;;;;21.15;15.32;;;;;;;;;;4819819;29;20058;-70
2021/04/20 09:53:33;;;;;;;18.88;11.63;;;;;;;;;;4819655;29;20514;-70
2021/04/20 09:56:19;;;;;;;21.50;14.77;;;;;;;;;;4819667;29;20038;-71
2021/04/20 09:58:47;;;;;;;21.00;14.07;;;;;;;;;;4822683;29;20390;-73
2021/04/20 10:01:19;;;;;;;21.52;13.95;;;;;;;;;;4839342;29;20033;-71
2021/04/20 10:03:54;;;;;;;20.17;13.55;;;;;;;;;;4839934;29;20030;-72
2021/04/20 10:06:29;;;;;;;23.48;16.42;;;;;;;;;;4839796;29;20041;-70
2021/04/20 10:09:04;;;;;;;22.00;14.90;;;;;;;;;;4840055;29;20474;-69
2021/04/20 10:11:40;;;;;;;22.85;15.27;;;;;;;;;;4839862;29;20098;-73
2021/04/20 10:14:11;;;;;;;23.13;15.70;;;;;;;;;;4839294;29;20399;-73
2021/04/20 10:16:52;;;;;;;22.90;15.35;;;;;;;;;;4839706;29;20022;-72
2021/04/20 10:19:37;;;;;;;21.15;14.68;;;;;;;;;;4839811;29;20037;-69
2021/04/20 10:22:11;;;;;;;24.10;15.25;;;;;;;;;;4839152;29;20037;-72
2021/04/20 10:24:40;;;;;;;22.63;15.10;;;;;;;;;;4840288;29;20026;-73
2021/04/20 10:27:08;;;;;;;21.30;14.80;;;;;;;;;;4843793;29;20033;-73
2021/04/20 10:29:47;;;;;;;20.13;13.23;;;;;;;;;;4857436;29;20161;-73
2021/04/20 10:32:18;;;;;;;20.42;13.23;;;;;;;;;;4857756;29;20025;-72
2021/04/20 10:34:51;;;;;;;23.42;15.32;;;;;;;;;;4858075;29;20061;-70
2021/04/20 10:37:28;;;;;;;22.45;14.23;;;;;;;;;;4856916;29;20048;-70
2021/04/20 10:39:55;;;;;;;20.70;14.27;;;;;;;;;;4858197;29;20493;-69
2021/04/20 10:42:32;;;;;;;19.83;13.48;;;;;;;;;;4869378;29;20095;-71
2021/04/20 10:44:58;;;;;;;19.98;13.50;;;;;;;;;;4875967;29;20045;-68
2021/04/20 10:47:26;;;;;;;19.73;13.63;;;;;;;;;;4878145;29;20040;-70
2021/04/20 10:49:54;;;;;;;19.98;13.18;;;;;;;;;;4880459;29;20064;-71
2021/04/20 10:52:22;;;;;;;18.42;13.65;;;;;;;;;;4880147;29;20029;-67
2021/04/20 10:54:49;;;;;;;18.88;13.05;;;;;;;;;;4879403;29;20045;-68
2021/04/20 10:57:16;;;;;;;15.10;11.98;;;;;;;;;;4879963;29;20436;-68
2021/04/20 10:59:43;;;;;;;19.95;12.45;;;;;;;;;;4879452;29;20044;-68
2021/04/20 11:02:18;;;;;;;19.95;13.43;;;;;;;;;;4879558;29;20077;-68
2021/04/20 11:04:44;;;;;;;19.92;13.82;;;;;;;;;;4862784;29;20120;-70
2021/04/20 11:07:20;;;;;;;18.30;11.30;;;;;;;;;;4879592;29;20054;-69
2021/04/20 11:09:47;;;;;;;21.17;13.60;;;;;;;;;;4877898;29;20061;-70
2021/04/20 11:12:14;;;;;;;18.00;12.95;;;;;;;;;;4879686;29;20036;-68
2021/04/20 11:14:41;;;;;;;17.13;13.07;;;;;;;;;;4878828;29;20100;-69
2021/04/20 11:17:13;;;;;;;18.40;13.27;;;;;;;;;;4878459;29;20437;-68
2021/04/20 11:19:42;;;;;;;17.27;12.60;;;;;;;;;;4879691;29;20113;-69
2021/04/20 11:22:11;;;;;;;18.75;11.65;;;;;;;;;;4878893;29;20033;-68
2021/04/20 11:24:41;;;;;;;17.83;12.85;;;;;;;;;;4879434;29;20033;-68
2021/04/20 11:27:10;;;;;;;18.55;12.57;;;;;;;;;;4879077;29;20115;-69
2021/04/20 11:29:42;;;;;;;16.08;11.05;;;;;;;;;;4877877;29;20116;-70
2021/04/20 11:32:09;;;;;;;16.10;11.98;;;;;;;;;;4878790;29;20052;-69
2021/04/20 11:34:35;;;;;;;22.48;12.32;;;;;;;;;;4878635;29;20068;-69
2021/04/20 11:37:05;;;;;;;16.30;10.82;;;;;;;;;;4878700;29;20389;-69
2021/04/20 11:39:42;;;;;;;18.45;12.65;;;;;;;;;;4879382;29;20052;-66
2021/04/20 11:42:11;;;;;;;18.77;12.65;;;;;;;;;;4878928;29;20052;-66
2021/04/20 11:44:47;;;;;;;16.75;12.00;;;;;;;;;;4878758;29;20139;-67
2021/04/20 11:47:13;;;;;;;14.15;10.85;;;;;;;;;;4878722;29;20051;-67
2021/04/20 11:49:45;;;;;;;14.38;9.82;;;;;;;;;;4878402;29;20068;-67
2021/04/20 11:52:19;;;;;;;14.18;9.68;;;;;;;;;;4868196;29;20043;-67
2021/04/20 11:54:46;;;;;;;13.63;9.85;;;;;;;;;;4878123;29;20148;-66
2021/04/20 11:57:15;;;;;;;13.40;9.55;;;;;;;;;;4877929;29;20552;-66
2021/04/20 11:59:47;;;;;;;11.63;8.80;;;;;;;;;;4878201;29;20045;-68
2021/04/20 12:02:13;;;;;;;12.63;9.63;;;;;;;;;;4878812;29;20044;-68
2021/04/20 12:04:40;;;;;;;14.70;10.82;;;;;;;;;;4878842;29;20493;-69
2021/04/20 12:07:06;;;;;;;15.15;10.93;;;;;;;;;;4878312;29;20506;-70
2021/04/20 12:09:38;;;;;;;15.90;10.90;;;;;;;;;;4878598;29;20156;-67
2021/04/20 12:12:05;;;;;;;14.45;10.70;;;;;;;;;;4868721;29;20051;-67
2021/04/20 12:14:36;;;;;;;14.77;10.55;;;;;;;;;;4867306;29;20190;-67
2021/04/20 12:17:02;;;;;;;15.63;11.65;;;;;;;;;;4867020;29;20068;-68
2021/04/20 12:19:30;;;;;;;14.07;10.32;;;;;;;;;;4868723;29;20569;-68
2021/04/20 12:21:57;;;;;;;12.35;8.82;;;;;;;;;;4868791;29;20029;-70
2021/04/20 12:24:24;;;;;;;15.70;8.23;;;;;;;;;;4866945;29;20486;-68
2021/04/20 12:26:51;;;;;;;10.23;7.22;;;;;;;;;;4868872;29;20017;-66
2021/04/20 12:29:19;;;;;;;12.55;8.23;;;;;;;;;;4868586;29;20059;-67
2021/04/20 12:31:46;;;;;;;10.70;8.07;;;;;;;;;;4877413;29;20025;-66
2021/04/20 12:34:12;;;;;;;15.15;9.35;;;;;;;;;;4877293;29;20041;-71
2021/04/20 12:36:41;;;;;;;14.93;10.15;;;;;;;;;;4865741;29;20031;-72
2021/04/20 12:39:10;;;;;;;14.98;9.95;;;;;;;;;;4874683;29;20438;-68
2021/04/20 12:41:36;;;;;;;11.57;8.27;;;;;;;;;;4866519;29;20056;-67
2021/04/20 12:44:05;;;;;;;13.63;9.70;;;;;;;;;;4868911;29;20061;-69
2021/04/20 12:46:32;;;;;;;17.00;11.43;;;;;;;;;;4861939;29;20022;-72
2021/04/20 12:49:02;;;;;;;21.85;14.82;;;;;;;;;;4861512;29;20090;-77
2021/04/20 12:51:30;;;;;;;21.70;14.77;;;;;;;;;;4876538;29;20438;-69
2021/04/20 12:53:58;;;;;;;18.75;12.38;;;;;;;;;;4871120;29;20083;-70
2021/04/20 12:56:36;;;;;;;16.48;12.65;;;;;;;;;;4873030;29;20034;-66
2021/04/20 12:59:04;;;;;;;19.45;12.65;;;;;;;;;;4866614;29;20052;-66
2021/04/20 13:01:30;;;;;;;17.92;12.75;;;;;;;;;;4871679;29;20039;-69
2021/04/20 13:03:56;;;;;;;17.35;11.90;;;;;;;;;;4860656;29;20042;-64
2021/04/20 13:06:23;;;;;;;27.45;13.07;;;;;;;;;;4866880;29;20036;-68
2021/04/20 13:08:51;;;;;;;20.50;13.05;;;;;;;;;;4867679;29;20040;-71
2021/04/20 13:11:31;;;;;;;20.67;13.95;;;;;;;;;;4864598;29;20037;-65
2021/04/20 13:14:00;;;;;;;22.20;14.40;;;;;;;;;;4866498;29;20048;-66
2021/04/20 13:16:29;;;;;;;22.80;13.55;;;;;;;;;;4868007;29;20029;-65
2021/04/20 13:18:56;;;;;;;20.00;13.32;;;;;;;;;;4877710;29;20474;-67
2021/04/20 13:21:24;;;;;;;19.25;13.65;;;;;;;;;;4849301;29;20045;-65
2021/04/20 13:23:51;;;;;;;18.80;13.88;;;;;;;;;;4858506;29;20026;-69
2021/04/20 13:26:22;;;;;;;22.17;13.27;;;;;;;;;;4863636;29;20069;-65
2021/04/20 13:28:49;;;;;;;20.42;14.60;;;;;;;;;;4858593;29;20542;-70
2021/04/20 13:31:15;;;;;;;20.35;13.50;;;;;;;;;;4858114;29;20037;-68
2021/04/20 13:33:48;;;;;;;22.88;15.85;;;;;;;;;;4858194;29;20104;-69
2021/04/20 13:36:16;;;;;;;20.60;14.75;;;;;;;;;;4859078;29;20707;-68
2021/04/20 13:38:49;;;;;;;20.58;14.77;;;;;;;;;;4858806;29;20026;-66
2021/04/20 13:41:16;;;;;;;19.80;14.40;;;;;;;;;;4857759;29;20053;-66
2021/04/20 13:43:45;;;;;;;25.60;16.17;;;;;;;;;;4858792;29;20444;-64
2021/04/20 13:46:11;;;;;;;24.10;17.13;;;;;;;;;;4870362;29;20048;-65
2021/04/20 13:48:37;;;;;;;23.30;16.70;;;;;;;;;;4872235;29;20041;-65
2021/04/20 13:51:03;;;;;;;23.02;15.60;;;;;;;;;;4863422;29;20053;-68
2021/04/20 13:53:33;;;;;;;19.85;12.25;;;;;;;;;;4873577;29;20060;-62
2021/04/20 13:56:07;;;;;;;19.75;12.52;;;;;;;;;;4876954;29;20033;-68
2021/04/20 13:58:37;;;;;;;23.92;13.65;;;;;;;;;;4875893;29;20044;-64
2021/04/20 14:01:04;;;;;;;18.38;11.50;;;;;;;;;;4859360;29;20512;-66
2021/04/20 14:03:33;;;;;;;14.93;10.27;;;;;;;;;;4875620;29;20077;-72
2021/04/20 14:06:00;;;;;;;13.60;9.48;;;;;;;;;;4861781;29;20394;-69
2021/04/20 14:08:29;;;;;;;13.85;8.95;;;;;;;;;;4858274;29;20021;-65
2021/04/20 14:10:57;;;;;;;14.23;9.60;;;;;;;;;;4858169;29;20041;-67
2021/04/20 14:13:23;;;;;;;16.48;10.23;;;;;;;;;;4858557;29;20068;-71
2021/04/20 14:15:53;;;;;;;13.35;8.70;;;;;;;;;;4858553;29;20057;-65
2021/04/20 14:18:23;;;;;;;13.27;8.73;;;;;;;;;;4858006;29;20085;-66
2021/04/20 14:20:49;;;;;;;14.88;9.60;;;;;;;;;;4858088;29;20033;-69
2021/04/20 14:23:16;;;;;;;14.15;9.00;;;;;;;;;;4858071;29;20030;-66
2021/04/20 14:25:51;;;;;;;14.93;9.40;;;;;;;;;;4858035;29;20493;-67
2021/04/20 14:28:19;;;;;;;13.40;9.00;;;;;;;;;;4858431;29;20065;-67
2021/04/20 14:30:51;;;;;;;16.60;11.40;;;;;;;;;;4857905;29;20074;-68
2021/04/20 14:33:17;;;;;;;;;;;;;;;;;;4858476;29;20055;-66
2021/04/20 14:35:43;;;;;;;22.73;14.88;;;;;;;;;;4858222;29;20403;-65
2021/04/20 14:38:10;;;;;;;24.77;16.55;;;;;;;;;;4858401;29;20117;-66
2021/04/20 14:40:38;;;;;;;27.98;18.42;;;;;;;;;;4858320;29;20034;-69
2021/04/20 14:43:05;;;;;;;30.88;20.23;;;;;;;;;;4858171;29;20158;-66
2021/04/20 14:45:38;;;;;;;30.08;19.10;;;;;;;;;;4858072;29;20037;-69
2021/04/20 14:48:04;;;;;;;;;;;;;;;;;;4858794;29;20033;-65
2021/04/20 14:50:30;;;;;;;27.75;17.27;;;;;;;;;;4858058;29;19919;-65
2021/04/20 14:52:57;;;;;;;24.02;16.55;;;;;;;;;;4858298;29;20081;-66
2021/04/20 14:55:24;;;;;;;27.00;16.75;;;;;;;;;;4858090;29;20166;-67
2021/04/20 14:57:50;;;;;;;23.92;16.27;;;;;;;;;;4857439;29;20032;-67
2021/04/20 15:00:18;;;;;;;25.25;17.92;;;;;;;;;;4857753;29;20029;-68
2021/04/20 15:02:45;;;;;;;24.35;17.58;;;;;;;;;;4858214;29;20094;-67
2021/04/20 15:05:12;;;;;;;29.08;17.63;;;;;;;;;;4857518;29;20034;-69
2021/04/20 15:07:38;;;;;;;35.17;20.60;;;;;;;;;;4857885;29;20029;-65
2021/04/20 15:10:15;;;;;;;30.88;20.30;;;;;;;;;;4857968;29;20051;-69
2021/04/20 15:12:53;;;;;;;40.45;24.65;;;;;;;;;;4857256;29;20029;-66
2021/04/20 15:15:24;;;;;;;40.65;27.83;;;;;;;;;;4857675;29;20090;-67
2021/04/20 15:17:52;;;;;;;40.30;25.85;;;;;;;;;;4857892;29;20394;-64
2021/04/20 15:20:19;;;;;;;44.88;29.17;;;;;;;;;;4857889;29;20089;-65
2021/04/20 15:22:51;;;;;;;41.08;28.63;;;;;;;;;;4857827;29;20073;-64
2021/04/20 15:25:19;;;;;;;33.33;20.98;;;;;;;;;;4857464;29;20648;-67
2021/04/20 15:27:48;;;;;;;39.03;26.15;;;;;;;;;;4857881;29;20455;-66
2021/04/20 15:30:15;;;;;;;45.38;28.20;;;;;;;;;;4840999;29;20068;-66
2021/04/20 15:32:49;;;;;;;44.97;29.15;;;;;;;;;;4860015;29;20030;-68
2021/04/20 15:35:24;;;;;;;41.28;26.83;;;;;;;;;;4860815;29;20097;-67
2021/04/20 15:37:53;;;;;;;35.03;23.23;;;;;;;;;;4860715;29;20053;-66
2021/04/20 15:40:23;;;;;;;33.42;22.45;;;;;;;;;;4860921;29;20033;-65
2021/04/20 15:42:49;;;;;;;37.10;23.10;;;;;;;;;;4860328;29;20045;-65
2021/04/20 15:45:16;;;;;;;35.08;22.55;;;;;;;;;;4860821;29;20034;-65
2021/04/20 15:47:43;;;;;;;36.75;22.40;;;;;;;;;;4860711;29;20494;-65
2021/04/20 15:50:11;;;;;;;33.60;22.10;;;;;;;;;;4860617;29;20034;-65
2021/04/20 15:52:38;;;;;;;29.73;20.58;;;;;;;;;;4860787;29;20029;-64
2021/04/20 15:55:07;;;;;;;30.33;20.00;;;;;;;;;;4859768;29;20048;-67
2021/04/20 15:57:40;;;;;;;31.20;19.10;;;;;;;;;;4858908;29;20033;-67
2021/04/20 16:00:07;;;;;;;26.02;16.80;;;;;;;;;;4860032;29;20030;-64
2021/04/20 16:02:34;;;;;;;24.48;16.10;;;;;;;;;;4843808;29;20351;-64
2021/04/20 16:05:05;;;;;;;24.05;14.63;;;;;;;;;;4860478;29;20034;-67
2021/04/20 16:07:32;;;;;;;19.33;13.98;;;;;;;;;;4860735;29;20110;-68
2021/04/20 16:10:01;;;;;;;20.70;13.43;;;;;;;;;;4860279;29;20030;-64
2021/04/20 16:12:29;;;;;;;24.77;14.02;;;;;;;;;;4859619;29;20483;-66
2021/04/20 16:14:57;;;;;;;23.75;14.07;;;;;;;;;;4860465;29;20041;-67
2021/04/20 16:17:28;;;;;;;22.23;13.80;;;;;;;;;;4860582;29;20488;-65
2021/04/20 16:20:01;;;;;;;22.90;14.70;;;;;;;;;;4860309;29;20049;-66
2021/04/20 16:22:28;;;;;;;20.48;13.05;;;;;;;;;;4860112;29;20439;-66
2021/04/20 16:24:55;;;;;;;21.33;12.77;;;;;;;;;;4860100;29;20371;-64
2021/04/20 16:27:26;;;;;;;18.63;11.68;;;;;;;;;;4860212;29;20025;-65
2021/04/20 16:29:53;;;;;;;19.63;12.10;;;;;;;;;;4859235;29;20029;-64
2021/04/20 16:32:19;;;;;;;20.55;13.68;;;;;;;;;;4856254;29;20026;-67
2021/04/20 16:34:46;;;;;;;18.58;12.52;;;;;;;;;;4857275;29;20132;-64
2021/04/20 16:37:18;;;;;;;21.30;13.07;;;;;;;;;;4859958;29;20033;-65
2021/04/20 16:39:47;;;;;;;22.98;13.60;;;;;;;;;;4859988;29;20041;-65
2021/04/20 16:42:22;;;;;;;20.13;12.90;;;;;;;;;;4858969;29;20049;-66
2021/04/20 16:45:07;;;;;;;21.33;13.43;;;;;;;;;;4859222;29;20042;-65
2021/04/20 16:47:43;;;;;;;20.80;12.45;;;;;;;;;;4860054;29;20040;-67
2021/04/20 16:50:18;;;;;;;21.02;12.30;;;;;;;;;;4877972;29;20051;-63
2021/04/20 16:53:03;;;;;;;19.08;11.90;;;;;;;;;;4878310;29;20081;-68
2021/04/20 16:55:29;;;;;;;21.42;13.70;;;;;;;;;;4861945;29;20148;-68
2021/04/20 16:58:18;;;;;;;20.92;12.32;;;;;;;;;;4860758;29;20029;-64
2021/04/20 17:01:07;;;;;;;18.20;12.20;;;;;;;;;;4859212;29;20052;-66
2021/04/20 17:03:50;;;;;;;16.35;10.98;;;;;;;;;;4858491;29;20037;-67
2021/04/20 17:06:26;;;;;;;16.48;11.23;;;;;;;;;;4866619;29;20036;-64
2021/04/20 17:08:55;;;;;;;15.85;11.25;;;;;;;;;;4877750;29;20033;-65
2021/04/20 17:11:48;;;;;;;19.15;11.00;;;;;;;;;;4875784;29;20089;-67
2021/04/20 17:14:26;;;;;;;15.32;10.38;;;;;;;;;;4878502;29;20041;-67
2021/04/20 17:17:01;;;;;;;14.10;9.63;;;;;;;;;;4878535;29;20060;-68
2021/04/20 17:19:36;;;;;;;14.35;9.90;;;;;;;;;;4877902;29;20046;-62
2021/04/20 17:22:05;;;;;;;13.80;9.52;;;;;;;;;;4877351;29;20084;-66
2021/04/20 17:24:38;;;;;;;14.38;9.90;;;;;;;;;;4877254;29;20141;-64
2021/04/20 17:27:04;;;;;;;;;;;;;;;;;;4877819;29;20029;-68
2021/04/20 17:29:48;;;;;;;18.30;10.65;;;;;;;;;;4877500;29;19954;-67
2021/04/20 17:32:16;;;;;;;14.82;10.57;;;;;;;;;;4877219;29;20043;-65
2021/04/20 17:34:50;;;;;;;16.45;11.55;;;;;;;;;;4877262;29;20068;-69
2021/04/20 17:37:29;;;;;;;20.25;12.30;;;;;;;;;;4877815;29;20087;-67
2021/04/20 17:39:56;;;;;;;19.13;12.00;;;;;;;;;;4877113;29;20035;-69
2021/04/20 17:42:30;;;;;;;22.65;13.75;;;;;;;;;;4877373;29;20496;-68
2021/04/20 17:45:16;;;;;;;24.27;14.00;;;;;;;;;;4877314;29;20570;-64
2021/04/20 17:47:43;;;;;;;18.13;13.07;;;;;;;;;;4892501;29;20073;-68
2021/04/20 17:50:15;;;;;;;21.85;14.48;;;;;;;;;;4894957;29;20028;-62
2021/04/20 17:52:47;;;;;;;23.98;14.65;;;;;;;;;;4895341;29;20385;-63
2021/04/20 17:55:19;;;;;;;21.70;14.27;;;;;;;;;;4894754;29;20044;-64
2021/04/20 17:58:07;;;;;;;21.90;14.43;;;;;;;;;;4895384;29;20021;-68
2021/04/20 18:00:38;;;;;;;26.58;17.45;;;;;;;;;;4895592;29;20044;-63
2021/04/20 18:03:07;;;;;;;22.30;14.50;;;;;;;;;;4873831;29;20040;-67
2021/04/20 18:06:02;;;;;;;26.45;16.02;;;;;;;;;;4867197;29;20028;-64
2021/04/20 18:08:47;;;;;;;23.63;14.82;;;;;;;;;;4847489;29;20072;-66
2021/04/20 18:11:27;;;;;;;22.50;15.15;;;;;;;;;;4849557;29;20029;-67
2021/04/20 18:13:53;;;;;;;24.02;14.90;;;;;;;;;;4855894;29;20042;-65
2021/04/20 18:16:28;;;;;;;24.17;15.18;;;;;;;;;;4855643;29;20125;-62
2021/04/20 18:19:00;;;;;;;24.85;15.18;;;;;;;;;;4855943;29;20045;-62
2021/04/20 18:21:32;;;;;;;27.77;17.73;;;;;;;;;;4856152;29;20034;-65
2021/04/20 18:23:58;;;;;;;;;;;;;;;;;;4863075;29;20037;-64
2021/04/20 18:26:43;;;;;;;26.38;14.95;;;;;;;;;;4856822;29;19928;-63
2021/04/20 18:29:12;;;;;;;26.52;15.48;;;;;;;;;;4844832;29;20446;-64
2021/04/20 18:31:56;;;;;;;23.95;15.25;;;;;;;;;;4837019;29;20113;-65
2021/04/20 18:34:31;;;;;;;25.80;16.58;;;;;;;;;;4836444;29;20049;-71
2021/04/20 18:37:03;;;;;;;30.33;17.52;;;;;;;;;;4837512;29;20038;-68
2021/04/20 18:39:29;;;;;;;;;;;;;;;;;;4837760;29;20041;-68
2021/04/20 18:42:03;;;;;;;28.98;17.48;;;;;;;;;;4837062;29;19921;-68
2021/04/20 18:44:37;;;;;;;29.75;17.92;;;;;;;;;;4844391;29;20037;-68
2021/04/20 18:47:22;;;;;;;32.65;18.77;;;;;;;;;;4857592;29;20034;-68
2021/04/20 18:50:02;;;;;;;35.05;18.83;;;;;;;;;;4881238;29;20043;-68
2021/04/20 18:52:47;;;;;;;32.55;19.20;;;;;;;;;;4894485;29;20388;-69
2021/04/20 18:55:19;;;;;;;30.48;18.20;;;;;;;;;;4888967;29;20041;-65
2021/04/20 18:57:47;;;;;;;27.58;17.63;;;;;;;;;;4892340;29;20027;-68
2021/04/20 19:00:17;;;;;;;29.95;17.85;;;;;;;;;;4892411;29;20028;-65
2021/04/20 19:02:50;;;;;;;30.05;17.70;;;;;;;;;;4888780;29;20477;-66
2021/04/20 19:05:28;;;;;;;31.88;17.75;;;;;;;;;;4886824;29;20392;-67
2021/04/20 19:08:13;;;;;;;30.17;17.20;;;;;;;;;;4894294;29;20036;-66
2021/04/20 19:10:42;;;;;;;32.30;18.92;;;;;;;;;;4887793;29;20103;-66
2021/04/20 19:13:17;;;;;;;34.53;19.50;;;;;;;;;;4884145;29;20148;-67
2021/04/20 19:15:43;;;;;;;31.85;18.77;;;;;;;;;;4892240;29;20040;-66
2021/04/20 19:18:33;;;;;;;31.25;19.40;;;;;;;;;;4877330;29;20362;-67
2021/04/20 19:21:04;;;;;;;29.60;17.20;;;;;;;;;;4871443;29;20052;-66
2021/04/20 19:23:49;;;;;;;28.35;17.50;;;;;;;;;;4887662;29;20545;-67
2021/04/20 19:26:16;;;;;;;31.17;17.52;;;;;;;;;;4887436;29;20085;-65
2021/04/20 19:28:57;;;;;;;32.20;20.35;;;;;;;;;;4892032;29;20032;-66
2021/04/20 19:31:43;;;;;;;35.30;20.00;;;;;;;;;;4872736;29;20779;-65
2021/04/20 19:34:09;;;;;;;27.70;17.15;;;;;;;;;;4879001;29;20025;-65
2021/04/20 19:36:55;;;;;;;33.92;19.63;;;;;;;;;;4878952;29;20033;-67
2021/04/20 19:39:26;;;;;;;31.08;19.42;;;;;;;;;;4874896;29;20052;-69
2021/04/20 19:42:10;;;;;;;28.98;19.90;;;;;;;;;;4873795;29;20102;-64
2021/04/20 19:44:49;;;;;;;31.73;18.80;;;;;;;;;;4869337;29;20067;-66
2021/04/20 19:47:18;;;;;;;36.67;22.73;;;;;;;;;;4869756;29;20479;-66
2021/04/20 19:49:47;;;;;;;36.60;22.23;;;;;;;;;;4869789;29;20033;-64
2021/04/20 19:52:32;;;;;;;35.95;19.20;;;;;;;;;;4867202;29;20108;-67
2021/04/20 19:54:59;;;;;;;28.63;17.77;;;;;;;;;;4866257;29;20045;-64
2021/04/20 19:57:34;;;;;;;32.20;19.38;;;;;;;;;;4852962;29;20149;-64
2021/04/20 20:00:10;;;;;;;34.92;18.77;;;;;;;;;;4869117;29;20113;-65
2021/04/20 20:02:37;;;;;;;35.38;19.10;;;;;;;;;;4870398;29;20080;-67
2021/04/20 20:05:03;;;;;;;37.08;20.10;;;;;;;;;;4869365;29;20033;-63
2021/04/20 20:07:34;;;;;;;47.03;26.55;;;;;;;;;;4870416;29;20045;-65
2021/04/20 20:10:09;;;;;;;35.75;20.08;;;;;;;;;;4867142;29;20028;-67
2021/04/20 20:12:37;;;;;;;29.95;18.75;;;;;;;;;;4868126;29;20041;-65
2021/04/20 20:15:06;;;;;;;36.15;19.75;;;;;;;;;;4868844;29;20053;-66
2021/04/20 20:17:32;;;;;;;31.45;18.48;;;;;;;;;;4867715;29;20037;-62
2021/04/20 20:20:01;;;;;;;33.17;18.63;;;;;;;;;;4867463;29;20540;-64
2021/04/20 20:22:29;;;;;;;30.17;17.38;;;;;;;;;;4869118;29;20748;-63
2021/04/20 20:24:59;;;;;;;33.55;17.67;;;;;;;;;;4868448;29;20026;-62
2021/04/20 20:27:36;;;;;;;35.13;21.20;;;;;;;;;;4867563;29;20093;-67